sensor_id;sensor_type;location;lat;lon;timestamp;pressure;altitude;pressure_sealevel;temperature;humidity
37648;BME280;23490;53.656;10.076;2023-06-14T00:00:04;98104.78;;;-145.95;90.07
37648;BME280;23490;53.656;10.076;2023-06-14T00:02:29;98092.41;;;-145.95;89.23
37648;BME280;23490;53.656;10.076;2023-06-14T00:04:54;98102.72;;;-145.95;88.93
37648;BME280;23490;53.656;10.076;2023-06-14T00:07:33;98096.53;;;-145.95;88.94
37648;BME280;23490;53.656;10.076;2023-06-14T00:09:59;98121.28;;;-145.95;89.17
37648;BME280;23490;53.656;10.076;2023-06-14T00:12:24;98073.81;;;-145.95;89.03
37648;BME280;23490;53.656;10.076;2023-06-14T00:14:50;98100.66;;;-145.95;88.56
37648;BME280;23490;53.656;10.076;2023-06-14T00:17:15;98082.06;;;-145.95;88.42
37648;BME280;23490;53.656;10.076;2023-06-14T00:19:42;98090.34;;;-145.95;88.19
37648;BME280;23490;53.656;10.076;2023-06-14T00:22:07;98144.00;;;-145.95;89.15
37648;BME280;23490;53.656;10.076;2023-06-14T00:24:32;98150.19;;;-145.95;88.82
37648;BME280;23490;53.656;10.076;2023-06-14T00:26:58;98110.97;;;-145.95;89.92
37648;BME280;23490;53.656;10.076;2023-06-14T00:29:23;98100.66;;;-145.95;88.98
37648;BME280;23490;53.656;10.076;2023-06-14T00:31:48;98096.53;;;-145.95;88.60
37648;BME280;23490;53.656;10.076;2023-06-14T00:34:14;98146.06;;;-145.95;88.63
37648;BME280;23490;53.656;10.076;2023-06-14T00:36:39;98082.06;;;-145.95;89.15
37648;BME280;23490;53.656;10.076;2023-06-14T00:39:04;98113.03;;;-145.95;89.87
37648;BME280;23490;53.656;10.076;2023-06-14T00:41:30;98092.41;;;-145.95;89.44
37648;BME280;23490;53.656;10.076;2023-06-14T00:43:55;98144.00;;;-145.95;89.61
37648;BME280;23490;53.656;10.076;2023-06-14T00:46:21;98084.13;;;-145.95;89.41
37648;BME280;23490;53.656;10.076;2023-06-14T00:48:47;98082.06;;;-145.95;88.79
37648;BME280;23490;53.656;10.076;2023-06-14T00:51:13;98113.03;;;-145.95;89.41
37648;BME280;23490;53.656;10.076;2023-06-14T00:53:39;98129.56;;;-145.95;90.74
37648;BME280;23490;53.656;10.076;2023-06-14T00:56:06;98158.47;;;-145.95;89.83
37648;BME280;23490;53.656;10.076;2023-06-14T00:58:32;98129.56;;;-145.95;89.51
37648;BME280;23490;53.656;10.076;2023-06-14T01:00:57;98146.06;;;-145.95;89.71
37648;BME280;23490;53.656;10.076;2023-06-14T01:03:23;98158.47;;;-145.95;89.39
37648;BME280;23490;53.656;10.076;2023-06-14T01:05:59;98174.97;;;-145.95;88.81
37648;BME280;23490;53.656;10.076;2023-06-14T01:11:31;98135.75;;;-145.95;89.10
37648;BME280;23490;53.656;10.076;2023-06-14T01:13:59;98166.72;;;-145.95;88.98
37648;BME280;23490;53.656;10.076;2023-06-14T01:16:27;98170.84;;;-145.95;89.56
37648;BME280;23490;53.656;10.076;2023-06-14T01:18:53;98170.84;;;-145.95;89.56
37648;BME280;23490;53.656;10.076;2023-06-14T01:21:25;98166.72;;;-145.95;90.11
37648;BME280;23490;53.656;10.076;2023-06-14T01:23:51;98187.34;;;-145.95;89.51
37648;BME280;23490;53.656;10.076;2023-06-14T01:26:24;98203.88;;;-145.95;90.92
37648;BME280;23490;53.656;10.076;2023-06-14T01:28:51;98191.50;;;-145.95;91.42
37648;BME280;23490;53.656;10.076;2023-06-14T01:31:21;98183.22;;;-145.95;91.17
37648;BME280;23490;53.656;10.076;2023-06-14T01:33:49;98199.75;;;-145.95;90.33
37648;BME280;23490;53.656;10.076;2023-06-14T01:36:15;98232.78;;;-145.95;91.25
37648;BME280;23490;53.656;10.076;2023-06-14T01:38:41;98212.13;;;-145.95;90.69
37648;BME280;23490;53.656;10.076;2023-06-14T01:41:09;98220.38;;;-145.95;91.17
37648;BME280;23490;53.656;10.076;2023-06-14T01:43:35;98284.38;;;-145.95;92.06
37648;BME280;23490;53.656;10.076;2023-06-14T01:46:01;98179.09;;;-145.95;91.05
37648;BME280;23490;53.656;10.076;2023-06-14T01:48:28;98214.19;;;-145.95;90.85
37648;BME280;23490;53.656;10.076;2023-06-14T01:50:53;98201.81;;;-145.95;89.93
37648;BME280;23490;53.656;10.076;2023-06-14T01:53:18;98238.97;;;-145.95;90.97
37648;BME280;23490;53.656;10.076;2023-06-14T01:55:44;98224.53;;;-145.95;91.70
37648;BME280;23490;53.656;10.076;2023-06-14T01:58:10;98210.06;;;-145.95;92.77
37648;BME280;23490;53.656;10.076;2023-06-14T02:00:36;98212.13;;;-145.95;93.78
37648;BME280;23490;53.656;10.076;2023-06-14T02:03:02;98216.25;;;-145.95;92.37
37648;BME280;23490;53.656;10.076;2023-06-14T02:05:29;98228.66;;;-145.95;93.23
37648;BME280;23490;53.656;10.076;2023-06-14T02:07:55;98261.69;;;-145.95;94.47
37648;BME280;23490;53.656;10.076;2023-06-14T02:10:20;98257.56;;;-145.95;95.34
37648;BME280;23490;53.656;10.076;2023-06-14T02:12:46;98259.63;;;-145.95;93.65
37648;BME280;23490;53.656;10.076;2023-06-14T02:15:11;98265.81;;;-145.95;94.01
37648;BME280;23490;53.656;10.076;2023-06-14T02:17:45;98331.88;;;-145.95;94.33
37648;BME280;23490;53.656;10.076;2023-06-14T02:20:12;98278.19;;;-145.95;93.88
37648;BME280;23490;53.656;10.076;2023-06-14T02:22:38;98307.09;;;-145.95;94.76
37648;BME280;23490;53.656;10.076;2023-06-14T02:25:03;98282.31;;;-145.95;96.47
37648;BME280;23490;53.656;10.076;2023-06-14T02:27:29;98265.81;;;-145.95;95.92
37648;BME280;23490;53.656;10.076;2023-06-14T02:29:54;98296.78;;;-145.95;94.82
37648;BME280;23490;53.656;10.076;2023-06-14T02:32:19;98280.25;;;-145.95;94.03
37648;BME280;23490;53.656;10.076;2023-06-14T02:34:45;98259.63;;;-145.95;94.05
37648;BME280;23490;53.656;10.076;2023-06-14T02:37:14;98302.97;;;-145.95;94.75
37648;BME280;23490;53.656;10.076;2023-06-14T02:39:40;98257.56;;;-145.95;95.70
37648;BME280;23490;53.656;10.076;2023-06-14T02:42:05;98325.69;;;-145.95;94.38
37648;BME280;23490;53.656;10.076;2023-06-14T02:44:31;98265.81;;;-145.95;93.63
37648;BME280;23490;53.656;10.076;2023-06-14T02:46:57;98311.22;;;-145.95;95.54
37648;BME280;23490;53.656;10.076;2023-06-14T02:49:24;98278.19;;;-145.95;95.60
37648;BME280;23490;53.656;10.076;2023-06-14T02:51:49;98294.72;;;-145.95;94.76
37648;BME280;23490;53.656;10.076;2023-06-14T02:54:14;98245.16;;;-145.95;94.00
37648;BME280;23490;53.656;10.076;2023-06-14T02:56:40;98278.19;;;-145.95;94.33
37648;BME280;23490;53.656;10.076;2023-06-14T02:59:06;98276.13;;;-145.95;94.44
37648;BME280;23490;53.656;10.076;2023-06-14T03:01:32;98292.66;;;-145.95;94.88
37648;BME280;23490;53.656;10.076;2023-06-14T03:04:01;98340.13;;;-145.95;95.33
37648;BME280;23490;53.656;10.076;2023-06-14T03:06:29;98319.50;;;-145.95;94.90
37648;BME280;23490;53.656;10.076;2023-06-14T03:08:56;98311.22;;;-145.95;95.42
37648;BME280;23490;53.656;10.076;2023-06-14T03:11:25;98311.22;;;-145.95;96.44
37648;BME280;23490;53.656;10.076;2023-06-14T03:13:51;98296.78;;;-145.95;95.29
37648;BME280;23490;53.656;10.076;2023-06-14T03:16:17;98294.72;;;-145.95;95.39
37648;BME280;23490;53.656;10.076;2023-06-14T03:18:45;98305.03;;;-145.95;95.43
37648;BME280;23490;53.656;10.076;2023-06-14T03:21:10;98282.31;;;-145.95;95.32
37648;BME280;23490;53.656;10.076;2023-06-14T03:23:36;98294.72;;;-145.95;95.51
37648;BME280;23490;53.656;10.076;2023-06-14T03:26:01;98298.84;;;-145.95;95.10
37648;BME280;23490;53.656;10.076;2023-06-14T03:28:26;98323.63;;;-145.95;95.09
37648;BME280;23490;53.656;10.076;2023-06-14T03:30:52;98319.50;;;-145.95;95.71
37648;BME280;23490;53.656;10.076;2023-06-14T03:33:17;98323.63;;;-145.95;95.38
37648;BME280;23490;53.656;10.076;2023-06-14T03:35:43;98309.16;;;-145.95;95.66
37648;BME280;23490;53.656;10.076;2023-06-14T03:38:08;98302.97;;;-145.95;94.77
37648;BME280;23490;53.656;10.076;2023-06-14T03:40:33;98315.38;;;-145.95;94.61
37648;BME280;23490;53.656;10.076;2023-06-14T03:42:59;98298.84;;;-145.95;95.59
37648;BME280;23490;53.656;10.076;2023-06-14T03:45:25;98288.53;;;-145.95;94.31
37648;BME280;23490;53.656;10.076;2023-06-14T03:47:50;98286.47;;;-145.95;93.56
37648;BME280;23490;53.656;10.076;2023-06-14T03:50:17;98311.22;;;-145.95;94.27
37648;BME280;23490;53.656;10.076;2023-06-14T03:52:43;98331.88;;;-145.95;95.86
37648;BME280;23490;53.656;10.076;2023-06-14T03:55:09;98348.38;;;-145.95;96.59
37648;BME280;23490;53.656;10.076;2023-06-14T03:57:35;98298.84;;;-145.95;95.92
37648;BME280;23490;53.656;10.076;2023-06-14T04:00:00;98286.47;;;-145.95;95.78
37648;BME280;23490;53.656;10.076;2023-06-14T04:02:26;98280.25;;;-145.95;94.98
37648;BME280;23490;53.656;10.076;2023-06-14T04:04:54;98274.06;;;-145.95;94.05
37648;BME280;23490;53.656;10.076;2023-06-14T04:07:20;98278.19;;;-145.95;95.31
37648;BME280;23490;53.656;10.076;2023-06-14T04:09:46;98294.72;;;-145.95;95.56
37648;BME280;23490;53.656;10.076;2023-06-14T04:12:11;98245.16;;;-145.95;94.66
37648;BME280;23490;53.656;10.076;2023-06-14T04:14:37;98269.94;;;-145.95;94.32
37648;BME280;23490;53.656;10.076;2023-06-14T04:17:03;98265.81;;;-145.95;95.36
37648;BME280;23490;53.656;10.076;2023-06-14T04:19:28;98243.09;;;-145.95;95.18
37648;BME280;23490;53.656;10.076;2023-06-14T04:21:54;98321.56;;;-145.95;96.66
37648;BME280;23490;53.656;10.076;2023-06-14T04:24:19;98290.59;;;-145.95;96.83
37648;BME280;23490;53.656;10.076;2023-06-14T04:26:45;98288.53;;;-145.95;96.79
37648;BME280;23490;53.656;10.076;2023-06-14T04:29:13;98288.53;;;-145.95;96.93
37648;BME280;23490;53.656;10.076;2023-06-14T04:31:43;98261.69;;;-145.95;96.59
37648;BME280;23490;53.656;10.076;2023-06-14T04:34:09;98208.00;;;-145.95;96.17
37648;BME280;23490;53.656;10.076;2023-06-14T04:36:40;98253.44;;;-145.95;95.92
37648;BME280;23490;53.656;10.076;2023-06-14T04:39:12;98253.44;;;-145.95;95.87
37648;BME280;23490;53.656;10.076;2023-06-14T04:41:38;98251.34;;;-145.95;96.46
37648;BME280;23490;53.656;10.076;2023-06-14T04:44:03;98249.28;;;-145.95;97.12
37648;BME280;23490;53.656;10.076;2023-06-14T04:46:29;98228.66;;;-145.95;96.87
37648;BME280;23490;53.656;10.076;2023-06-14T04:48:55;98236.91;;;-145.95;96.65
37648;BME280;23490;53.656;10.076;2023-06-14T04:51:21;98236.91;;;-145.95;96.46
37648;BME280;23490;53.656;10.076;2023-06-14T04:53:57;98236.91;;;-145.95;97.11
37648;BME280;23490;53.656;10.076;2023-06-14T04:56:26;98238.97;;;-145.95;96.37
37648;BME280;23490;53.656;10.076;2023-06-14T04:58:52;98216.25;;;-145.95;95.46
37648;BME280;23490;53.656;10.076;2023-06-14T05:01:18;98216.25;;;-145.95;95.12
37648;BME280;23490;53.656;10.076;2023-06-14T05:03:44;98191.50;;;-145.95;94.96
37648;BME280;23490;53.656;10.076;2023-06-14T05:06:10;98199.75;;;-145.95;94.44
37648;BME280;23490;53.656;10.076;2023-06-14T05:08:37;98208.00;;;-145.95;94.16
37648;BME280;23490;53.656;10.076;2023-06-14T05:11:02;98187.34;;;-145.95;94.30
37648;BME280;23490;53.656;10.076;2023-06-14T05:13:28;98129.56;;;-145.95;93.93
37648;BME280;23490;53.656;10.076;2023-06-14T05:15:53;98185.28;;;-145.95;94.40
37648;BME280;23490;53.656;10.076;2023-06-14T05:18:19;98197.69;;;-145.95;93.75
37648;BME280;23490;53.656;10.076;2023-06-14T05:20:45;98129.56;;;-145.95;93.17
37648;BME280;23490;53.656;10.076;2023-06-14T05:23:11;98129.56;;;-145.95;92.34
37648;BME280;23490;53.656;10.076;2023-06-14T05:25:41;98113.03;;;-145.95;93.02
37648;BME280;23490;53.656;10.076;2023-06-14T05:28:07;98110.97;;;-145.95;92.30
37648;BME280;23490;53.656;10.076;2023-06-14T05:30:32;98075.88;;;-145.95;90.89
37648;BME280;23490;53.656;10.076;2023-06-14T05:32:58;98096.53;;;-145.95;90.86
37648;BME280;23490;53.656;10.076;2023-06-14T05:35:23;98038.72;;;-145.95;89.87
37648;BME280;23490;53.656;10.076;2023-06-14T05:37:52;98075.88;;;-145.95;88.59
37648;BME280;23490;53.656;10.076;2023-06-14T05:40:17;98042.84;;;-145.95;91.03
37648;BME280;23490;53.656;10.076;2023-06-14T05:42:43;98046.97;;;-145.95;87.91
37648;BME280;23490;53.656;10.076;2023-06-14T05:45:08;98009.81;;;-145.95;87.28
37648;BME280;23490;53.656;10.076;2023-06-14T05:47:34;98013.94;;;-145.95;89.47
37648;BME280;23490;53.656;10.076;2023-06-14T05:49:59;97972.66;;;-145.95;87.96
37648;BME280;23490;53.656;10.076;2023-06-14T05:52:25;97956.16;;;-145.95;87.66
37648;BME280;23490;53.656;10.076;2023-06-14T05:54:50;97968.53;;;-145.95;85.59
37648;BME280;23490;53.656;10.076;2023-06-14T05:57:15;97935.50;;;-145.95;86.02
37648;BME280;23490;53.656;10.076;2023-06-14T05:59:41;97894.22;;;-145.95;85.85
37648;BME280;23490;53.656;10.076;2023-06-14T06:02:06;97964.41;;;-145.95;84.74
37648;BME280;23490;53.656;10.076;2023-06-14T06:04:31;97931.38;;;-145.95;85.42
37648;BME280;23490;53.656;10.076;2023-06-14T06:06:57;97857.06;;;-145.95;84.09
37648;BME280;23490;53.656;10.076;2023-06-14T06:09:22;97869.44;;;-145.95;83.88
37648;BME280;23490;53.656;10.076;2023-06-14T06:11:48;97910.72;;;-145.95;85.00
37648;BME280;23490;53.656;10.076;2023-06-14T06:14:13;97807.53;;;-145.95;83.96
37648;BME280;23490;53.656;10.076;2023-06-14T06:16:38;97832.28;;;-145.95;80.80
37648;BME280;23490;53.656;10.076;2023-06-14T06:19:04;97791.00;;;-145.95;80.02
37648;BME280;23490;53.656;10.076;2023-06-14T06:21:30;97764.16;;;-145.95;79.50
37648;BME280;23490;53.656;10.076;2023-06-14T06:23:55;97735.28;;;-145.95;77.92
37648;BME280;23490;53.656;10.076;2023-06-14T06:26:22;97737.34;;;-145.95;76.78
37648;BME280;23490;53.656;10.076;2023-06-14T06:28:48;97737.34;;;-145.95;76.75
37648;BME280;23490;53.656;10.076;2023-06-14T06:31:13;97809.59;;;-145.95;75.68
37648;BME280;23490;53.656;10.076;2023-06-14T06:33:38;97718.75;;;-145.95;72.99
37648;BME280;23490;53.656;10.076;2023-06-14T06:36:05;97708.44;;;-145.95;73.05
37648;BME280;23490;53.656;10.076;2023-06-14T06:38:30;97698.13;;;-145.95;70.89
37648;BME280;23490;53.656;10.076;2023-06-14T06:40:56;97658.91;;;-145.95;70.61
37648;BME280;23490;53.656;10.076;2023-06-14T06:43:21;97619.69;;;-145.95;69.21
37648;BME280;23490;53.656;10.076;2023-06-14T06:45:47;97634.13;;;-145.95;67.02
37648;BME280;23490;53.656;10.076;2023-06-14T06:48:12;97642.38;;;-145.95;68.97
37648;BME280;23490;53.656;10.076;2023-06-14T06:50:38;97613.47;;;-145.95;67.78
37648;BME280;23490;53.656;10.076;2023-06-14T06:53:03;97568.06;;;-145.95;68.13
37648;BME280;23490;53.656;10.076;2023-06-14T06:55:29;97555.69;;;-145.95;66.68
37648;BME280;23490;53.656;10.076;2023-06-14T06:57:54;97547.44;;;-145.95;66.33
37648;BME280;23490;53.656;10.076;2023-06-14T07:00:20;97547.44;;;-145.95;64.50
37648;BME280;23490;53.656;10.076;2023-06-14T07:02:46;97493.75;;;-145.95;62.41
37648;BME280;23490;53.656;10.076;2023-06-14T07:05:12;97504.09;;;-145.95;61.68
37648;BME280;23490;53.656;10.076;2023-06-14T07:07:37;97555.69;;;-145.95;59.83
37648;BME280;23490;53.656;10.076;2023-06-14T07:10:04;97563.94;;;-145.95;59.88
37648;BME280;23490;53.656;10.076;2023-06-14T07:12:33;97464.88;;;-145.95;58.62
37648;BME280;23490;53.656;10.076;2023-06-14T07:15:01;97427.72;;;-145.95;58.76
37648;BME280;23490;53.656;10.076;2023-06-14T07:17:26;97367.84;;;-145.95;59.17
37648;BME280;23490;53.656;10.076;2023-06-14T07:19:51;97431.84;;;-145.95;58.22
37648;BME280;23490;53.656;10.076;2023-06-14T07:22:18;97382.31;;;-145.95;58.62
37648;BME280;23490;53.656;10.076;2023-06-14T07:24:43;97411.19;;;-145.95;58.17
37648;BME280;23490;53.656;10.076;2023-06-14T07:27:09;97390.56;;;-145.95;59.82
37648;BME280;23490;53.656;10.076;2023-06-14T07:29:35;97365.78;;;-145.95;58.21
37648;BME280;23490;53.656;10.076;2023-06-14T07:32:00;97345.16;;;-145.95;57.85
37648;BME280;23490;53.656;10.076;2023-06-14T07:34:25;97295.63;;;-145.95;57.44
37648;BME280;23490;53.656;10.076;2023-06-14T07:36:51;97287.38;;;-145.95;55.09
37648;BME280;23490;53.656;10.076;2023-06-14T07:39:16;97250.22;;;-145.95;54.50
37648;BME280;23490;53.656;10.076;2023-06-14T07:41:42;97262.59;;;-145.95;52.37
37648;BME280;23490;53.656;10.076;2023-06-14T07:44:07;97303.88;;;-145.95;52.89
37648;BME280;23490;53.656;10.076;2023-06-14T07:46:32;97250.22;;;-145.95;52.42
37648;BME280;23490;53.656;10.076;2023-06-14T07:48:59;97225.44;;;-145.95;54.85
37648;BME280;23490;53.656;10.076;2023-06-14T07:51:24;97235.75;;;-145.95;52.04
37648;BME280;23490;53.656;10.076;2023-06-14T07:53:50;97147.03;;;-145.95;53.04
37648;BME280;23490;53.656;10.076;2023-06-14T07:56:15;97159.41;;;-145.95;51.56
37648;BME280;23490;53.656;10.076;2023-06-14T07:58:40;97134.63;;;-145.95;53.19
37648;BME280;23490;53.656;10.076;2023-06-14T08:01:06;97132.56;;;-145.95;50.28
37648;BME280;23490;53.656;10.076;2023-06-14T08:03:33;97076.84;;;-145.95;50.81
37648;BME280;23490;53.656;10.076;2023-06-14T08:05:58;97091.28;;;-145.95;52.07
37648;BME280;23490;53.656;10.076;2023-06-14T08:08:24;97072.72;;;-145.95;51.00
37648;BME280;23490;53.656;10.076;2023-06-14T08:10:49;97114.00;;;-145.95;50.38
37648;BME280;23490;53.656;10.076;2023-06-14T08:13:15;96973.66;;;-145.95;49.55
37648;BME280;23490;53.656;10.076;2023-06-14T08:15:40;96988.09;;;-145.95;50.82
37648;BME280;23490;53.656;10.076;2023-06-14T08:18:05;97006.69;;;-145.95;50.11
37648;BME280;23490;53.656;10.076;2023-06-14T08:20:31;96911.75;;;-145.95;47.07
37648;BME280;23490;53.656;10.076;2023-06-14T08:22:57;96882.84;;;-145.95;47.42
37648;BME280;23490;53.656;10.076;2023-06-14T08:25:23;96829.19;;;-145.95;47.14
37648;BME280;23490;53.656;10.076;2023-06-14T08:27:48;96800.31;;;-145.95;47.30
37648;BME280;23490;53.656;10.076;2023-06-14T08:30:15;96674.44;;;-145.95;45.39
37648;BME280;23490;53.656;10.076;2023-06-14T08:32:42;96697.13;;;-145.95;46.22
37648;BME280;23490;53.656;10.076;2023-06-14T08:35:07;96643.47;;;-145.95;45.29
37648;BME280;23490;53.656;10.076;2023-06-14T08:37:38;96585.69;;;-145.95;44.13
37648;BME280;23490;53.656;10.076;2023-06-14T08:40:04;96573.31;;;-145.95;44.66
37648;BME280;23490;53.656;10.076;2023-06-14T08:42:32;96453.63;;;-145.95;42.23
37648;BME280;23490;53.656;10.076;2023-06-14T08:44:58;96548.56;;;-145.95;43.64
37648;BME280;23490;53.656;10.076;2023-06-14T08:47:26;96499.03;;;-145.95;43.67
37648;BME280;23490;53.656;10.076;2023-06-14T08:49:53;96441.25;;;-145.95;43.89
37648;BME280;23490;53.656;10.076;2023-06-14T08:52:20;96369.03;;;-145.95;43.77
37648;BME280;23490;53.656;10.076;2023-06-14T08:54:46;96418.56;;;-145.95;42.58
37648;BME280;23490;53.656;10.076;2023-06-14T08:57:14;96309.19;;;-145.95;42.08
37648;BME280;23490;53.656;10.076;2023-06-14T08:59:47;96234.91;;;-145.95;41.64
37648;BME280;23490;53.656;10.076;2023-06-14T09:02:14;96226.66;;;-145.95;41.00
37648;BME280;23490;53.656;10.076;2023-06-14T09:04:43;96296.81;;;-145.95;41.95
37648;BME280;23490;53.656;10.076;2023-06-14T09:07:09;96325.69;;;-145.95;40.97
37648;BME280;23490;53.656;10.076;2023-06-14T09:09:41;96402.03;;;-145.95;40.93
37648;BME280;23490;53.656;10.076;2023-06-14T09:12:15;96288.56;;;-145.95;41.42
37648;BME280;23490;53.656;10.076;2023-06-14T09:14:41;96111.13;;;-145.95;40.64
37648;BME280;23490;53.656;10.076;2023-06-14T09:17:07;96152.38;;;-145.95;40.19
37648;BME280;23490;53.656;10.076;2023-06-14T09:19:33;96185.41;;;-145.95;41.63
37648;BME280;23490;53.656;10.076;2023-06-14T09:21:59;96026.53;;;-145.95;41.16
37648;BME280;23490;53.656;10.076;2023-06-14T09:24:25;96160.63;;;-145.95;40.10
37648;BME280;23490;53.656;10.076;2023-06-14T09:26:51;96024.47;;;-145.95;40.18
37648;BME280;23490;53.656;10.076;2023-06-14T09:29:17;96135.88;;;-145.95;39.65
37648;BME280;23490;53.656;10.076;2023-06-14T09:31:45;96078.09;;;-145.95;39.03
37648;BME280;23490;53.656;10.076;2023-06-14T09:34:10;96061.59;;;-145.95;38.66
37648;BME280;23490;53.656;10.076;2023-06-14T09:36:39;96065.72;;;-145.95;39.94
37648;BME280;23490;53.656;10.076;2023-06-14T09:39:04;96135.88;;;-145.95;39.87
37648;BME280;23490;53.656;10.076;2023-06-14T09:41:39;95987.31;;;-145.95;38.95
37648;BME280;23490;53.656;10.076;2023-06-14T09:44:06;96020.34;;;-145.95;37.47
37648;BME280;23490;53.656;10.076;2023-06-14T09:46:32;95847.03;;;-145.95;39.24
37648;BME280;23490;53.656;10.076;2023-06-14T09:48:58;96051.28;;;-145.95;39.69
37648;BME280;23490;53.656;10.076;2023-06-14T09:51:25;95966.69;;;-145.95;39.54
37648;BME280;23490;53.656;10.076;2023-06-14T09:53:51;95906.84;;;-145.95;38.37
37648;BME280;23490;53.656;10.076;2023-06-14T09:56:25;95970.81;;;-145.95;37.77
37648;BME280;23490;53.656;10.076;2023-06-14T09:58:54;95778.94;;;-145.95;38.31
37648;BME280;23490;53.656;10.076;2023-06-14T10:01:20;95859.41;;;-145.95;40.70
37648;BME280;23490;53.656;10.076;2023-06-14T10:03:47;95830.53;;;-145.95;38.16
37648;BME280;23490;53.656;10.076;2023-06-14T10:06:15;95880.03;;;-145.95;38.33
37648;BME280;23490;53.656;10.076;2023-06-14T10:08:41;95880.03;;;-145.95;37.16
37648;BME280;23490;53.656;10.076;2023-06-14T10:11:06;95875.91;;;-145.95;37.73
37648;BME280;23490;53.656;10.076;2023-06-14T10:13:32;95741.81;;;-145.95;36.95
37648;BME280;23490;53.656;10.076;2023-06-14T10:16:20;95682.00;;;-145.95;37.79
37648;BME280;23490;53.656;10.076;2023-06-14T10:19:07;95630.41;;;-145.95;36.75
37648;BME280;23490;53.656;10.076;2023-06-14T10:22:01;96032.72;;;-145.95;38.49
37648;BME280;23490;53.656;10.076;2023-06-14T10:24:33;95921.31;;;-145.95;38.18
37648;BME280;23490;53.656;10.076;2023-06-14T10:26:59;95735.63;;;-145.95;38.12
37648;BME280;23490;53.656;10.076;2023-06-14T10:29:25;95886.22;;;-145.95;37.79
37648;BME280;23490;53.656;10.076;2023-06-14T10:31:56;96123.50;;;-145.95;39.58
37648;BME280;23490;53.656;10.076;2023-06-14T10:34:27;96239.03;;;-145.95;39.38
37648;BME280;23490;53.656;10.076;2023-06-14T10:37:07;96107.00;;;-145.95;38.05
37648;BME280;23490;53.656;10.076;2023-06-14T10:39:41;95925.44;;;-145.95;37.46
37648;BME280;23490;53.656;10.076;2023-06-14T10:42:06;95574.72;;;-145.95;37.73
37648;BME280;23490;53.656;10.076;2023-06-14T10:44:33;95844.97;;;-145.95;37.02
37648;BME280;23490;53.656;10.076;2023-06-14T10:47:00;95591.22;;;-145.95;37.23
37648;BME280;23490;53.656;10.076;2023-06-14T10:52:15;95774.81;;;-145.95;37.47
37648;BME280;23490;53.656;10.076;2023-06-14T10:55:18;96164.75;;;-145.95;40.06
37648;BME280;23490;53.656;10.076;2023-06-14T10:57:54;96331.88;;;-145.95;38.69
37648;BME280;23490;53.656;10.076;2023-06-14T11:00:25;95999.69;;;-145.95;37.98
37648;BME280;23490;53.656;10.076;2023-06-14T11:10:59;96226.66;;;-145.95;38.94
37648;BME280;23490;53.656;10.076;2023-06-14T11:13:28;96201.91;;;-145.95;39.29
37648;BME280;23490;53.656;10.076;2023-06-14T11:15:54;96288.56;;;-145.95;40.69
37648;BME280;23490;53.656;10.076;2023-06-14T11:18:21;95966.69;;;-145.95;41.05
37648;BME280;23490;53.656;10.076;2023-06-14T11:20:50;96032.72;;;-145.95;38.27
37648;BME280;23490;53.656;10.076;2023-06-14T11:23:15;95624.22;;;-145.95;37.59
37648;BME280;23490;53.656;10.076;2023-06-14T11:25:41;96152.38;;;-145.95;38.49
37648;BME280;23490;53.656;10.076;2023-06-14T11:28:06;96236.97;;;-145.95;40.38
37648;BME280;23490;53.656;10.076;2023-06-14T11:30:32;95752.13;;;-145.95;38.23
37648;BME280;23490;53.656;10.076;2023-06-14T11:32:57;95809.91;;;-145.95;39.46
37648;BME280;23490;53.656;10.076;2023-06-14T11:35:23;95574.72;;;-145.95;36.71
37648;BME280;23490;53.656;10.076;2023-06-14T11:37:54;95770.69;;;-145.95;37.01
37648;BME280;23490;53.656;10.076;2023-06-14T11:40:24;95719.13;;;-145.95;37.51
37648;BME280;23490;53.656;10.076;2023-06-14T11:42:50;95339.53;;;-145.95;35.97
37648;BME280;23490;53.656;10.076;2023-06-14T11:45:15;95327.16;;;-145.95;35.77
37648;BME280;23490;53.656;10.076;2023-06-14T11:47:41;95578.84;;;-145.95;35.87
37648;BME280;23490;53.656;10.076;2023-06-14T11:50:08;95801.66;;;-145.95;37.28
37648;BME280;23490;53.656;10.076;2023-06-14T11:52:34;95880.03;;;-145.95;37.74
37648;BME280;23490;53.656;10.076;2023-06-14T11:54:59;95745.94;;;-145.95;36.78
37648;BME280;23490;53.656;10.076;2023-06-14T11:57:26;95500.44;;;-145.95;36.03
37648;BME280;23490;53.656;10.076;2023-06-14T11:59:51;95496.31;;;-145.95;35.39
37648;BME280;23490;53.656;10.076;2023-06-14T12:02:18;95382.88;;;-145.95;34.52
37648;BME280;23490;53.656;10.076;2023-06-14T12:04:46;95863.53;;;-145.95;36.79
37648;BME280;23490;53.656;10.076;2023-06-14T12:07:13;96028.59;;;-145.95;38.31
37648;BME280;23490;53.656;10.076;2023-06-14T12:12:28;95772.75;;;-145.95;38.41
37648;BME280;23490;53.656;10.076;2023-06-14T12:14:55;95277.66;;;-145.95;36.14
37648;BME280;23490;53.656;10.076;2023-06-14T12:17:24;95422.06;;;-145.95;35.86
37648;BME280;23490;53.656;10.076;2023-06-14T12:19:50;95475.69;;;-145.95;34.95
37648;BME280;23490;53.656;10.076;2023-06-14T12:22:16;95582.97;;;-145.95;34.75
37648;BME280;23490;53.656;10.076;2023-06-14T12:24:45;95438.56;;;-145.95;34.63
37648;BME280;23490;53.656;10.076;2023-06-14T12:27:12;95395.25;;;-145.95;34.35
37648;BME280;23490;53.656;10.076;2023-06-14T12:29:44;95768.63;;;-145.95;37.58
37648;BME280;23490;53.656;10.076;2023-06-14T12:32:10;96067.78;;;-145.95;38.96
37648;BME280;23490;53.656;10.076;2023-06-14T12:34:35;96032.72;;;-145.95;38.00
37648;BME280;23490;53.656;10.076;2023-06-14T12:37:00;96164.75;;;-145.95;38.35
37648;BME280;23490;53.656;10.076;2023-06-14T12:39:26;96102.88;;;-145.95;38.54
37648;BME280;23490;53.656;10.076;2023-06-14T12:41:51;95896.53;;;-145.95;37.73
37648;BME280;23490;53.656;10.076;2023-06-14T12:44:16;95818.16;;;-145.95;36.21